Startpagina
METAR-TAF:

METAR-TAF

Vliegvelden :

Baia Mare, Roemenië

Luchthaven Baia Mare

breedte: 47-40N, lengte: 023-35E, hoogte: 218 m

Actueel weer

Dit bericht is 19 minuten geleden gemaakt, om 00:30 UTC
Temperatuur
Druk

METAR: LRBM 220030Z AUTO /////KT //// FEW032/// SCT190/// ///// Q////

Tijdstip: 02:49 (00:49 UTC)

Verwachting

Dit bericht is 10 uur en het 49 minuten geleden gemaakt, om 14:00 UTC
Verwachting geldig van 21 om 15 UTC tot 21 om 24 UTC
Wind 4 kt uit variabele richting
Zicht 10 km of meer
Gebroken wolken op 3000 ft

TAF: LRBM 211400Z 2115/2124 VRB04KT 9999 BKN030

Waarnemingen en weersverwachtingen van meer dan 4000 vliegvelden (METAR en TAF).

De beschikbare stations zijn de gele en rode punten op de kaart.

Ga met uw muis naar het station om de naam te zien.

Klik dan om waarnemingen en weersverwachtingen te zien.

kaart wijzigen: klik op de groene knoppen met een zwart kruis om in te zoomen, op de groene knop met een streepje om uit te zoomen of op de groene pijlen voor aangrenzende kaarten.


METAR-TAF: